AFR7345 LFML-LFPG
Flight info
| Callsign | AFR7345 |
|---|---|
| Flight time | N/A |
| Altitude | 34000 |
| Route | N0391F340 ETREK DCT RUSIT DCT BULOL DCT LOGNI DCT MOKIP DCT ARFOZ DCT TINIL |
| Aircraft | A320/M-SDE2E3FGIJ1RWY/HB1 |
Departure
| Time | N/A |
|---|---|
| Airport | Marseille Provence Airport (LFML) |
Arrival
| Time | 2026-05-08 19:55 |
|---|---|
| Airport | Charles de Gaulle International Airport (LFPG) |
| Time | Latitude | Longitude | Altitude | Speed | Heading |
|---|---|---|---|---|---|
| 2026-05-08 18:53 | 44.48188 | 4.95737 | 32400 ft | 453 kts | 349° |
| 2026-05-08 18:53 | 44.51296 | 4.95016 | 32942 ft | 452 kts | 348° |
| 2026-05-08 18:54 | 44.54391 | 4.94294 | 33474 ft | 451 kts | 348° |
| 2026-05-08 18:54 | 44.57481 | 4.93574 | 33916 ft | 450 kts | 348° |
| 2026-05-08 18:54 | 44.63566 | 4.92154 | 34021 ft | 430 kts | 348° |
| 2026-05-08 18:55 | 44.69366 | 4.90796 | 34012 ft | 419 kts | 348° |
| 2026-05-08 18:55 | 44.72222 | 4.90027 | 34014 ft | 416 kts | 342° |
| 2026-05-08 18:56 | 44.77613 | 4.87210 | 34010 ft | 413 kts | 335° |
| 2026-05-08 18:56 | 44.82950 | 4.84202 | 34007 ft | 413 kts | 335° |
| 2026-05-08 18:57 | 44.88282 | 4.81190 | 34005 ft | 413 kts | 335° |
| 2026-05-08 18:57 | 44.93611 | 4.78174 | 34005 ft | 413 kts | 335° |
| 2026-05-08 18:58 | 44.98945 | 4.75162 | 34006 ft | 412 kts | 335° |
| 2026-05-08 18:58 | 45.02467 | 4.73170 | 34005 ft | 412 kts | 335° |
| 2026-05-08 18:59 | 45.09255 | 4.69312 | 34007 ft | 411 kts | 335° |
| 2026-05-08 18:59 | 45.14588 | 4.66364 | 34011 ft | 413 kts | 341° |
| 2026-05-08 18:59 | 45.17413 | 4.65559 | 34011 ft | 416 kts | 352° |
| 2026-05-08 19:00 | 45.20318 | 4.65512 | 34010 ft | 419 kts | 3° |
| 2026-05-08 19:00 | 45.23195 | 4.66238 | 34010 ft | 422 kts | 14° |
| 2026-05-08 19:00 | 45.25966 | 4.67600 | 34003 ft | 422 kts | 18° |
| 2026-05-08 19:01 | 45.31476 | 4.70484 | 34001 ft | 422 kts | 18° |
| 2026-05-08 19:01 | 45.36984 | 4.73361 | 33990 ft | 422 kts | 18° |
| 2026-05-08 19:02 | 45.42496 | 4.76240 | 33985 ft | 422 kts | 18° |
| 2026-05-08 19:02 | 45.48006 | 4.79134 | 33986 ft | 422 kts | 18° |
| 2026-05-08 19:03 | 45.53480 | 4.82014 | 33981 ft | 422 kts | 18° |
| 2026-05-08 19:03 | 45.58996 | 4.84921 | 33980 ft | 423 kts | 17° |
| 2026-05-08 19:04 | 45.64515 | 4.87842 | 33982 ft | 423 kts | 17° |
| 2026-05-08 19:04 | 45.70037 | 4.90764 | 33991 ft | 423 kts | 17° |
| 2026-05-08 19:05 | 45.75568 | 4.93693 | 33989 ft | 424 kts | 17° |
| 2026-05-08 19:05 | 45.81097 | 4.96630 | 33987 ft | 424 kts | 17° |
| 2026-05-08 19:06 | 45.86622 | 4.99583 | 33991 ft | 424 kts | 17° |
| 2026-05-08 19:06 | 45.92147 | 5.02512 | 33992 ft | 422 kts | 13° |
| 2026-05-08 19:06 | 45.94993 | 5.03266 | 33993 ft | 412 kts | 357° |
| 2026-05-08 19:07 | 45.97769 | 5.02907 | 33987 ft | 402 kts | 341° |
| 2026-05-08 19:07 | 46.00338 | 5.01493 | 33987 ft | 392 kts | 325° |
| 2026-05-08 19:07 | 46.02618 | 4.99381 | 33976 ft | 390 kts | 324° |
| 2026-05-08 19:08 | 46.07653 | 4.96278 | 33968 ft | 398 kts | 338° |
| 2026-05-08 19:08 | 46.13009 | 4.94155 | 33966 ft | 400 kts | 340° |
| 2026-05-08 19:09 | 46.18341 | 4.91935 | 33970 ft | 398 kts | 338° |
| 2026-05-08 19:09 | 46.23598 | 4.89436 | 33978 ft | 397 kts | 336° |
| 2026-05-08 19:10 | 46.28820 | 4.86832 | 33980 ft | 397 kts | 336° |
| 2026-05-08 19:10 | 46.34046 | 4.84258 | 33986 ft | 397 kts | 336° |
| 2026-05-08 19:11 | 46.39277 | 4.81708 | 33994 ft | 396 kts | 337° |
| 2026-05-08 19:11 | 46.44500 | 4.79162 | 34002 ft | 396 kts | 337° |
| 2026-05-08 19:12 | 46.49714 | 4.76611 | 34005 ft | 395 kts | 337° |
| 2026-05-08 19:12 | 46.55001 | 4.74007 | 33994 ft | 413 kts | 337° |
| 2026-05-08 19:12 | 46.57765 | 4.72643 | 33997 ft | 426 kts | 337° |
| 2026-05-08 19:13 | 46.60608 | 4.71244 | 33993 ft | 436 kts | 337° |
| 2026-05-08 19:13 | 46.66369 | 4.68421 | 33997 ft | 442 kts | 338° |
| 2026-05-08 19:14 | 46.72200 | 4.65559 | 33999 ft | 442 kts | 337° |
| 2026-05-08 19:14 | 46.78028 | 4.62674 | 34002 ft | 442 kts | 337° |
| 2026-05-08 19:15 | 46.83787 | 4.59812 | 34004 ft | 429 kts | 337° |
| 2026-05-08 19:15 | 46.89395 | 4.57031 | 34008 ft | 424 kts | 337° |
| 2026-05-08 19:16 | 46.94973 | 4.54258 | 34010 ft | 423 kts | 337° |
| 2026-05-08 19:16 | 47.00527 | 4.51474 | 34015 ft | 421 kts | 337° |
| 2026-05-08 19:17 | 47.06071 | 4.48694 | 34017 ft | 420 kts | 337° |
| 2026-05-08 19:17 | 47.11598 | 4.45934 | 34021 ft | 420 kts | 337° |
| 2026-05-08 19:18 | 47.17126 | 4.43165 | 34019 ft | 419 kts | 337° |
| 2026-05-08 19:18 | 47.22640 | 4.40390 | 34021 ft | 418 kts | 337° |
| 2026-05-08 19:19 | 47.27999 | 4.37680 | 34026 ft | 418 kts | 337° |
| 2026-05-08 19:19 | 47.33527 | 4.34880 | 34034 ft | 417 kts | 337° |
| 2026-05-08 19:20 | 47.39013 | 4.32096 | 34034 ft | 417 kts | 336° |
| 2026-05-08 19:20 | 47.44489 | 4.29316 | 34040 ft | 416 kts | 337° |
| 2026-05-08 19:21 | 47.49959 | 4.26534 | 34042 ft | 415 kts | 337° |
| 2026-05-08 19:21 | 47.55413 | 4.23753 | 34034 ft | 415 kts | 336° |
| 2026-05-08 19:22 | 47.60863 | 4.20968 | 34042 ft | 414 kts | 337° |
| 2026-05-08 19:22 | 47.66302 | 4.18188 | 34033 ft | 413 kts | 337° |
| 2026-05-08 19:22 | 47.69028 | 4.16792 | 33670 ft | 413 kts | 337° |
| 2026-05-08 19:23 | 47.71727 | 4.15405 | 33021 ft | 408 kts | 337° |
| 2026-05-08 19:23 | 47.74400 | 4.14031 | 32330 ft | 405 kts | 337° |
| 2026-05-08 19:23 | 47.77062 | 4.12657 | 31615 ft | 404 kts | 337° |
| 2026-05-08 19:23 | 47.79673 | 4.11314 | 31409 ft | 390 kts | 337° |
| 2026-05-08 19:24 | 47.82204 | 4.10010 | 31110 ft | 380 kts | 337° |
| 2026-05-08 19:24 | 47.84679 | 4.08730 | 30715 ft | 374 kts | 337° |
| 2026-05-08 19:24 | 47.87120 | 4.07466 | 30266 ft | 369 kts | 337° |
| 2026-05-08 19:24 | 47.89537 | 4.06211 | 29759 ft | 366 kts | 337° |
| 2026-05-08 19:25 | 47.91930 | 4.04966 | 29014 ft | 366 kts | 337° |
| 2026-05-08 19:25 | 47.94369 | 4.03690 | 28679 ft | 378 kts | 338° |
| 2026-05-08 19:25 | 47.96908 | 4.02361 | 28682 ft | 392 kts | 338° |
| 2026-05-08 19:26 | 48.02077 | 3.99670 | 28687 ft | 398 kts | 338° |
| 2026-05-08 19:26 | 48.07308 | 3.96957 | 28456 ft | 397 kts | 338° |
| 2026-05-08 19:26 | 48.09911 | 3.95605 | 27651 ft | 395 kts | 338° |
| 2026-05-08 19:27 | 48.12495 | 3.94261 | 26799 ft | 393 kts | 338° |
| 2026-05-08 19:27 | 48.15101 | 3.92898 | 25692 ft | 399 kts | 338° |
| 2026-05-08 19:27 | 48.17722 | 3.91526 | 24869 ft | 398 kts | 338° |
| 2026-05-08 19:27 | 48.20322 | 3.90165 | 24134 ft | 394 kts | 338° |
| 2026-05-08 19:28 | 48.22899 | 3.88812 | 23407 ft | 390 kts | 338° |
| 2026-05-08 19:28 | 48.25450 | 3.87470 | 22656 ft | 386 kts | 338° |
| 2026-05-08 19:28 | 48.27960 | 3.86153 | 22123 ft | 378 kts | 338° |
| 2026-05-08 19:28 | 48.30425 | 3.84865 | 21581 ft | 373 kts | 338° |
| 2026-05-08 19:29 | 48.32869 | 3.83625 | 21049 ft | 368 kts | 339° |
| 2026-05-08 19:29 | 48.35286 | 3.82425 | 20486 ft | 364 kts | 339° |
| 2026-05-08 19:29 | 48.37689 | 3.81245 | 19933 ft | 361 kts | 339° |
| 2026-05-08 19:29 | 48.40072 | 3.80077 | 19367 ft | 360 kts | 339° |
| 2026-05-08 19:30 | 48.41642 | 3.79306 | 18991 ft | 359 kts | 339° |
| 2026-05-08 19:30 | 48.47487 | 3.73477 | 18654 ft | 328 kts | 318° |
| 2026-05-08 19:31 | 48.49817 | 3.70582 | 18251 ft | 328 kts | 317° |
| 2026-05-08 19:31 | 48.51004 | 3.69099 | 17890 ft | 327 kts | 317° |
| 2026-05-08 19:31 | 48.52750 | 3.66915 | 17397 ft | 326 kts | 317° |
| 2026-05-08 19:31 | 48.55050 | 3.64025 | 16755 ft | 324 kts | 317° |
| 2026-05-08 19:32 | 48.56217 | 3.62553 | 16432 ft | 323 kts | 318° |
| 2026-05-08 19:32 | 48.57941 | 3.60378 | 15946 ft | 323 kts | 318° |
| 2026-05-08 19:32 | 48.59639 | 3.58235 | 15482 ft | 322 kts | 318° |
| 2026-05-08 19:32 | 48.61232 | 3.55877 | 14993 ft | 320 kts | 308° |
| 2026-05-08 19:33 | 48.62526 | 3.53065 | 14823 ft | 332 kts | 301° |
| 2026-05-08 19:33 | 48.63786 | 3.50106 | 14626 ft | 337 kts | 301° |
| 2026-05-08 19:33 | 48.65063 | 3.47136 | 14415 ft | 337 kts | 301° |
| 2026-05-08 19:33 | 48.66340 | 3.44165 | 14206 ft | 336 kts | 301° |
| 2026-05-08 19:34 | 48.67615 | 3.41198 | 13995 ft | 336 kts | 301° |
| 2026-05-08 19:34 | 48.68888 | 3.38239 | 13792 ft | 335 kts | 301° |
| 2026-05-08 19:34 | 48.70156 | 3.35282 | 13568 ft | 334 kts | 301° |
| 2026-05-08 19:34 | 48.71414 | 3.32329 | 13362 ft | 333 kts | 301° |
| 2026-05-08 19:35 | 48.72663 | 3.29378 | 13161 ft | 332 kts | 301° |
| 2026-05-08 19:35 | 48.73902 | 3.26438 | 13043 ft | 331 kts | 301° |
| 2026-05-08 19:35 | 48.75142 | 3.23498 | 13066 ft | 331 kts | 301° |
| 2026-05-08 19:35 | 48.76383 | 3.20555 | 13068 ft | 331 kts | 301° |
| 2026-05-08 19:36 | 48.77627 | 3.17609 | 13072 ft | 331 kts | 301° |
| 2026-05-08 19:36 | 48.78869 | 3.14671 | 13067 ft | 331 kts | 301° |
| 2026-05-08 19:36 | 48.80111 | 3.11723 | 13073 ft | 331 kts | 301° |
| 2026-05-08 19:36 | 48.81351 | 3.08775 | 13065 ft | 332 kts | 301° |
| 2026-05-08 19:37 | 48.82592 | 3.05828 | 13071 ft | 332 kts | 301° |
| 2026-05-08 19:37 | 48.83833 | 3.02879 | 13068 ft | 332 kts | 301° |
| 2026-05-08 19:37 | 48.85236 | 3.00088 | 13063 ft | 333 kts | 311° |
| 2026-05-08 19:37 | 48.86806 | 2.97496 | 13069 ft | 334 kts | 311° |
| 2026-05-08 19:38 | 48.87806 | 2.95843 | 13065 ft | 334 kts | 311° |
| 2026-05-08 19:38 | 48.89374 | 2.93240 | 13074 ft | 332 kts | 311° |
| 2026-05-08 19:38 | 48.90891 | 2.90724 | 13070 ft | 314 kts | 311° |
| 2026-05-08 19:38 | 48.92274 | 2.88260 | 13071 ft | 301 kts | 302° |
| 2026-05-08 19:39 | 48.93188 | 2.85441 | 13077 ft | 296 kts | 286° |
| 2026-05-08 19:39 | 48.93545 | 2.82380 | 13077 ft | 294 kts | 271° |
| 2026-05-08 19:39 | 48.93431 | 2.79287 | 13077 ft | 293 kts | 264° |
| 2026-05-08 19:39 | 48.93266 | 2.76236 | 13079 ft | 294 kts | 265° |
| 2026-05-08 19:40 | 48.93103 | 2.73139 | 13080 ft | 294 kts | 265° |
| 2026-05-08 19:40 | 48.92938 | 2.70007 | 13086 ft | 294 kts | 265° |
| 2026-05-08 19:40 | 48.92776 | 2.66952 | 13049 ft | 292 kts | 265° |
| 2026-05-08 19:40 | 48.92614 | 2.63889 | 12640 ft | 290 kts | 265° |
| 2026-05-08 19:41 | 48.92505 | 2.61835 | 12303 ft | 288 kts | 265° |
| 2026-05-08 19:41 | 48.91938 | 2.51429 | 10636 ft | 280 kts | 264° |
| 2026-05-08 19:42 | 48.91774 | 2.48485 | 10167 ft | 278 kts | 264° |
| 2026-05-08 19:42 | 48.91612 | 2.45565 | 9666 ft | 276 kts | 264° |
| 2026-05-08 19:42 | 48.91453 | 2.42663 | 9126 ft | 275 kts | 264° |
| 2026-05-08 19:42 | 48.91295 | 2.39782 | 8574 ft | 274 kts | 264° |
| 2026-05-08 19:43 | 48.91135 | 2.36904 | 8129 ft | 271 kts | 264° |
| 2026-05-08 19:43 | 48.90972 | 2.34032 | 8048 ft | 273 kts | 264° |
| 2026-05-08 19:43 | 48.90800 | 2.30993 | 8057 ft | 275 kts | 264° |
| 2026-05-08 19:43 | 48.90635 | 2.28098 | 8057 ft | 275 kts | 264° |
| 2026-05-08 19:44 | 48.90470 | 2.25208 | 8061 ft | 275 kts | 264° |
| 2026-05-08 19:44 | 48.90304 | 2.22326 | 7875 ft | 272 kts | 264° |
| 2026-05-08 19:44 | 48.90140 | 2.19467 | 7388 ft | 271 kts | 264° |
| 2026-05-08 19:44 | 48.89976 | 2.16616 | 6912 ft | 271 kts | 264° |
| 2026-05-08 19:45 | 48.89810 | 2.13768 | 6446 ft | 270 kts | 264° |
| 2026-05-08 19:45 | 48.89646 | 2.10924 | 5942 ft | 270 kts | 264° |
| 2026-05-08 19:45 | 48.89481 | 2.08080 | 5427 ft | 271 kts | 264° |
| 2026-05-08 19:45 | 48.89317 | 2.05311 | 5265 ft | 255 kts | 264° |
| 2026-05-08 19:46 | 48.89162 | 2.02725 | 5118 ft | 244 kts | 264° |
| 2026-05-08 19:46 | 48.89237 | 2.00154 | 5007 ft | 242 kts | 288° |
| 2026-05-08 19:46 | 48.91587 | 1.96964 | 4989 ft | 238 kts | 352° |
| 2026-05-08 19:47 | 48.93205 | 1.97216 | 4986 ft | 235 kts | 25° |
| 2026-05-08 19:47 | 48.94474 | 1.98710 | 4986 ft | 232 kts | 54° |
| 2026-05-08 19:47 | 48.95347 | 2.00778 | 4987 ft | 233 kts | 61° |
| 2026-05-08 19:47 | 48.96137 | 2.02932 | 4983 ft | 233 kts | 66° |
| 2026-05-08 19:48 | 48.96473 | 2.05309 | 4985 ft | 231 kts | 86° |
| 2026-05-08 19:48 | 48.96575 | 2.07746 | 4986 ft | 231 kts | 87° |
| 2026-05-08 19:48 | 48.96698 | 2.10192 | 4982 ft | 231 kts | 86° |
| 2026-05-08 19:48 | 48.96837 | 2.12630 | 4985 ft | 232 kts | 85° |
| 2026-05-08 19:49 | 48.96979 | 2.15073 | 4988 ft | 232 kts | 85° |
| 2026-05-08 19:49 | 48.97120 | 2.17517 | 4983 ft | 232 kts | 85° |
| 2026-05-08 19:49 | 48.97259 | 2.19957 | 4950 ft | 232 kts | 85° |
| 2026-05-08 19:49 | 48.97398 | 2.22394 | 4725 ft | 230 kts | 85° |
| 2026-05-08 19:50 | 48.97535 | 2.24802 | 4434 ft | 226 kts | 85° |
| 2026-05-08 19:50 | 48.97669 | 2.27169 | 4135 ft | 223 kts | 85° |
| 2026-05-08 19:50 | 48.97756 | 2.28716 | 3935 ft | 221 kts | 85° |
| 2026-05-08 19:50 | 48.97928 | 2.31766 | 3555 ft | 217 kts | 85° |
| 2026-05-08 19:51 | 48.98055 | 2.34043 | 3266 ft | 215 kts | 85° |
| 2026-05-08 19:51 | 48.98180 | 2.36295 | 2975 ft | 212 kts | 85° |
| 2026-05-08 19:51 | 48.98304 | 2.38517 | 2697 ft | 210 kts | 85° |
| 2026-05-08 19:51 | 48.98426 | 2.40719 | 2412 ft | 207 kts | 85° |
| 2026-05-08 19:52 | 48.98546 | 2.42892 | 2139 ft | 204 kts | 85° |
| 2026-05-08 19:52 | 48.98622 | 2.44289 | 1950 ft | 193 kts | 84° |
| 2026-05-08 19:52 | 48.98728 | 2.46216 | 1731 ft | 168 kts | 84° |
| 2026-05-08 19:52 | 48.98819 | 2.47887 | 1493 ft | 149 kts | 84° |
| 2026-05-08 19:53 | 48.98899 | 2.49369 | 1281 ft | 137 kts | 84° |
| 2026-05-08 19:53 | 48.98977 | 2.50770 | 1107 ft | 130 kts | 84° |
| 2026-05-08 19:53 | 48.99045 | 2.52136 | 950 ft | 129 kts | 84° |
| 2026-05-08 19:53 | 48.99119 | 2.53488 | 788 ft | 127 kts | 83° |
| 2026-05-08 19:54 | 48.99192 | 2.54819 | 604 ft | 126 kts | 84° |
| 2026-05-08 19:54 | 48.99266 | 2.56151 | 451 ft | 126 kts | 83° |
| 2026-05-08 19:54 | 48.99342 | 2.57452 | 361 ft | 113 kts | 86° |
| 2026-05-08 19:54 | 48.99391 | 2.58392 | 352 ft | 64 kts | 85° |
| 2026-05-08 19:55 | 48.99418 | 2.58915 | 355 ft | 39 kts | 85° |
| 2026-05-08 19:55 | 48.99465 | 2.59251 | 352 ft | 31 kts | 64° |
| 2026-05-08 19:55 | 48.99549 | 2.59523 | 358 ft | 25 kts | 66° |
| 2026-05-08 19:55 | 48.99639 | 2.59686 | 358 ft | 20 kts | 15° |
| 2026-05-08 19:56 | 48.99783 | 2.59675 | 355 ft | 22 kts | 356° |
| 2026-05-08 19:56 | 48.99914 | 2.59660 | 362 ft | 9 kts | 356° |
| 2026-05-08 19:56 | 48.99947 | 2.59657 | 358 ft | 0 kts | 355° |